Terminal Aerodrome Forecast
Issued by NWS

Home | Current Version | Previous Version | Text Only | Print | Product List | Glossary On
Versions: 1 2 3 4 5 6 7 8 9 10 11 12
000
FTUS44 KTSA 061720
TAFBVO
TAF
KBVO 061720Z 0618/0718 17008KT P6SM FEW250
     FM070100 19003KT P6SM SCT250
     FM071500 19010G17KT P6SM SCT250=

USA.gov is the U.S. government's official web portal to all federal, state and local government web resources and services.